Denio, NV

07:20 PM PST on 26. Janúar 2015 (GMT -0800)
Winnemucca Municipal | Change Station
CLOSE
Current Station
Airport
Location: Winnemucca,
Elevation: 4311 ft
Nearby Weather Stations

Elev 4311 ft 40.90 °N, 117.81 °W | Updated 24 minutes ago

Heiðskírt
Heiðskírt
38 °F
Feels Like 33 °F
N
7
Vindur Breytileg vindátt Vindur from SA

Í dag
High -- | Low -- °F
--% Chance of Precip.
Yesterday
High -- | Low -- °F
Precip. -- in
7:12 AM 5:01 PM
Waxing Crescent, 49% visible
Loftþrýstingur 30.12 in
Skyggni 10.0 miles
Clouds Heiðskírt
Vindkæling 33 °F
Daggarmark 29 °F
Raki 70%
Rainfall 0.00 in
Snow Depth Not available.
UV 0 out of 12
Pollen 1.10 out of 12
Air Quality Not available.
Flu Activity Not available.
METAR KWMC 270256Z AUTO 14006KT 10SM CLR 03/M02 A3007 RMK AO2 SLP197 T00331017 56005

More Conditions Fewer Conditions

Loftþrýstingur 30.12 in
Skyggni 10.0 miles
Clouds Heiðskírt
Vindkæling 33 °F
Daggarmark 29 °F
Raki 70%
Rainfall 0.00 in
Snow Depth Not available.
UV 0 out of 12
Pollen 1.10 out of 12
Air Quality Not available.
Flu Activity Not available.
METAR KWMC 270256Z AUTO 14006KT 10SM CLR 03/M02 A3007 RMK AO2 SLP197 T00331017 56005

More Conditions Fewer Conditions

10-Day Weather Forecast

Almanac

Astronomy

Jan. 26, 2015 Rise Set
Actual Time
Civil Twilight
Nautical Twilight
Astronomical Twilight
Moon
Length Of Visible Light
Length of Day
Tomorrow will be .
, % of the Moon is Illuminated

Today's Extremes

State Highs State Lows

Community

WunderPhotos

Upload Photos

1,790,499 photos uploaded!

WunderBlogs® & News

Nearby

Air Quality

  Air Quality AQ Index Pollutant
Not available.

Snow Depth

Station Depth Elevation

Earthquake Activity

Staður Distance Mag. Time & Date
Minimum magnitude displayed is 2.5.

Coastal Water Temperatures

Staður Hitastig

Nearby Weather Stations